Terminal Aerodrome Forecast
Issued by NWS

Home | Current Version | Previous Version | Text Only | Print | Product List | Glossary On
Versions: 1 2 3 4 5 6 7 8 9 10 11 12 13 14 15 16 17 18 19 20 21
000
FTUS42 KGSP 101200 AAA
TAFGMU
TAF AMD
KGMU 101221Z 1012/1112 00000KT P6SM VCSH BKN100 OVC200
     FM101700 00000KT P6SM VCTS BKN050CB
     FM102000 06004KT P6SM -SHRA VCTS BKN050CB
      TEMPO 1020/1022 4SM TSRA BKN040CB
     FM102200 05005KT P6SM BKN050 PROB30 1022/1102 4SM TSRA BKN040CB
     FM110500 04003KT P6SM BKN240=

USA.gov is the U.S. government's official web portal to all federal, state and local government web resources and services.